Rechercher aéroport 
image banner adimage banner adimage banner ad
image banner ad

KLSN - Los Banos Muni

Situé à Los Banos, United States

ICAO - LSN, IATA - LSN

Données fournies par Airmate  

Information générale

Coordonnées: N37°3'50" W120°52'11"
Élévation : 121 feet MSL.
Variation magnétique : 16° East
Voir autres Aéroports à California

Données opérationnelles

Special qualification required
Heure actuelle UTC:
Heure actuelle locale:
Météo à : KMCE - Merced Rgnl/Macready Field ( 40 km )
METAR: KMCE 210253Z AUTO 30003KT 10SM CLR 24/10 A2993 RMK AO2 SLP135 T02390100 53007
TAF: KMCE 202320Z 2100/2124 VRB04KT P6SM SKC
Voir NOTAMs / SUP AIP / TFR affectant cet aéroport [VIEW]
Fréquences de communication: [VIEW]

Pistes:

Identifiant RWYQFULongueur (ft)Largeur (ft)SurfaceLDA (ft)
14153°380175ASPH
32333°380175ASPH

Coordonnées de l'aéroport

Adresse: Los Banos United States

Vue satellite de KLSN